Time;durP1;ratioP1;P1;durP2;ratioP2;P2;SDS_P1;SDS_P2;PMS_P1;PMS_P2;Temp;Humidity;BMP_temperature;BMP_pressure;BME280_temperature;BME280_humidity;BME280_pressure;Samples;Min_cycle;Max_cycle;Signal;HPM_P1;HPM_P2
2023/02/06 00:00:44;;;;;;;32.10;4.53;;;;;;;4.18;100.00;104265.88;4972658;28;20050;-63
2023/02/06 00:03:10;;;;;;;;;;;;;;;4.16;100.00;104269.34;4975948;28;20053;-62
2023/02/06 00:05:37;;;;;;;23.45;3.00;;;;;;;4.10;100.00;104268.59;4970154;28;19926;-63
2023/02/06 00:08:05;;;;;;;27.35;3.92;;;;;;;4.06;100.00;104266.91;4980159;28;20145;-64
2023/02/06 00:10:32;;;;;;;26.50;3.47;;;;;;;4.04;100.00;104256.53;4980535;28;20049;-63
2023/02/06 00:12:59;;;;;;;25.13;3.55;;;;;;;3.98;100.00;104256.59;4982196;28;20045;-63
2023/02/06 00:15:26;;;;;;;31.02;4.05;;;;;;;3.94;100.00;104249.75;4984105;28;20089;-63
2023/02/06 00:17:52;;;;;;;27.60;3.70;;;;;;;3.90;100.00;104254.09;4976460;28;20061;-63
2023/02/06 00:20:18;;;;;;;31.55;4.88;;;;;;;3.85;100.00;104250.69;4990093;28;20042;-64
2023/02/06 00:22:45;;;;;;;30.30;4.43;;;;;;;3.84;100.00;104256.78;4965690;28;20138;-64
2023/02/06 00:25:11;;;;;;;23.63;3.13;;;;;;;3.81;100.00;104250.75;4981958;28;20073;-63
2023/02/06 00:27:38;;;;;;;20.30;3.90;;;;;;;3.78;100.00;104256.81;4980450;28;20058;-63
2023/02/06 00:30:05;;;;;;;17.17;3.05;;;;;;;3.73;100.00;104243.91;4974835;28;20058;-63
2023/02/06 00:32:33;;;;;;;25.00;3.90;;;;;;;3.77;100.00;104244.72;4981147;28;20049;-64
2023/02/06 00:35:00;;;;;;;23.48;4.30;;;;;;;3.71;100.00;104242.22;4966512;28;20236;-64
2023/02/06 00:37:26;;;;;;;21.05;3.28;;;;;;;3.65;100.00;104234.50;4976454;28;20219;-63
2023/02/06 00:39:52;;;;;;;24.02;3.53;;;;;;;3.65;100.00;104232.75;4971775;28;20042;-63
2023/02/06 00:42:19;;;;;;;29.33;3.90;;;;;;;3.59;100.00;104232.81;4984687;28;20049;-63
2023/02/06 00:44:45;;;;;;;23.48;3.55;;;;;;;3.60;100.00;104236.28;4973911;28;20529;-64
2023/02/06 00:47:12;;;;;;;23.25;3.95;;;;;;;3.62;100.00;104240.56;4971608;28;20057;-63
2023/02/06 00:49:39;;;;;;;20.02;3.20;;;;;;;3.58;100.00;104233.69;4984924;28;20050;-63
2023/02/06 00:52:05;;;;;;;23.33;3.72;;;;;;;3.60;100.00;104231.09;4969493;28;20054;-63
2023/02/06 00:54:31;;;;;;;26.98;3.22;;;;;;;3.54;100.00;104224.22;4973634;28;20073;-64
2023/02/06 00:56:58;;;;;;;22.95;2.97;;;;;;;3.51;100.00;104227.72;4977521;28;20104;-64
2023/02/06 00:59:24;;;;;;;26.77;4.57;;;;;;;3.51;100.00;104238.09;4968295;28;20055;-64
2023/02/06 01:01:51;;;;;;;26.88;7.32;;;;;;;3.53;100.00;104235.50;4979551;28;20057;-63
2023/02/06 01:04:17;;;;;;;33.65;10.27;;;;;;;3.50;100.00;104236.38;4978352;28;20137;-64
2023/02/06 01:06:43;;;;;;;29.65;7.38;;;;;;;3.47;100.00;104239.00;4973482;28;20060;-65
2023/02/06 01:09:10;;;;;;;17.25;4.68;;;;;;;3.42;100.00;104239.94;4973190;28;20417;-63
2023/02/06 01:11:36;;;;;;;17.95;3.55;;;;;;;3.35;100.00;104236.53;4984549;28;20829;-64
2023/02/06 01:14:03;;;;;;;22.85;3.47;;;;;;;3.30;100.00;104233.13;4968377;28;20050;-64
2023/02/06 01:16:29;;;;;;;20.00;3.50;;;;;;;3.20;100.00;104231.50;4976117;28;20495;-64
2023/02/06 01:18:55;;;;;;;22.20;3.10;;;;;;;3.19;100.00;104228.03;4985273;28;20046;-64
2023/02/06 01:21:24;;;;;;;28.20;4.35;;;;;;;3.20;100.00;104232.38;4960148;28;20042;-65
2023/02/06 01:23:52;;;;;;;23.95;3.83;;;;;;;3.19;100.00;104242.75;4939870;28;20108;-64
2023/02/06 01:26:22;;;;;;;19.38;3.17;;;;;;;3.18;100.00;104247.09;4974969;28;20079;-63
2023/02/06 01:28:49;;;;;;;20.83;3.55;;;;;;;3.08;100.00;104250.66;4980647;28;20058;-64
2023/02/06 01:31:19;;;;;;;21.60;3.90;;;;;;;3.10;100.00;104260.13;4970308;28;20043;-64
2023/02/06 01:33:46;;;;;;;28.83;3.55;;;;;;;3.10;100.00;104256.69;4970902;28;20416;-63
2023/02/06 01:36:14;;;;;;;21.58;3.70;;;;;;;3.12;100.00;104260.97;4976649;28;20047;-63
2023/02/06 01:38:41;;;;;;;24.02;3.38;;;;;;;3.14;100.00;104254.03;4975743;28;20105;-64
2023/02/06 01:41:09;;;;;;;18.92;3.67;;;;;;;3.15;100.00;104249.69;4981788;28;20053;-63
2023/02/06 01:43:41;;;;;;;15.38;2.55;;;;;;;3.19;100.00;104250.53;4977738;28;20062;-63
2023/02/06 01:46:08;;;;;;;22.70;2.95;;;;;;;3.14;100.00;104240.22;4977777;28;20688;-63
2023/02/06 01:48:52;;;;;;;25.27;3.83;;;;;;;3.17;100.00;104235.84;4969086;28;20058;-64
2023/02/06 01:51:23;;;;;;;22.10;3.40;;;;;;;3.15;100.00;104236.72;4987338;28;20359;-63
2023/02/06 01:53:58;;;;;;;36.05;3.78;;;;;;;3.18;100.00;104231.53;4979701;28;20383;-63
2023/02/06 01:56:28;;;;;;;24.83;3.08;;;;;;;3.15;100.00;104234.13;4974421;28;20054;-63
2023/02/06 01:58:59;;;;;;;28.98;3.88;;;;;;;3.21;100.00;104233.22;4988515;28;20065;-63
2023/02/06 02:01:25;;;;;;;19.80;3.58;;;;;;;3.22;100.00;104246.19;4968991;28;20062;-63
2023/02/06 02:03:58;;;;;;;19.63;3.65;;;;;;;3.29;100.00;104250.44;4979981;28;20050;-64
2023/02/06 02:06:26;;;;;;;19.50;3.33;;;;;;;3.30;100.00;104248.72;4978217;28;20064;-63
2023/02/06 02:08:55;;;;;;;24.38;3.45;;;;;;;3.26;100.00;104242.69;4993756;28;20048;-63
2023/02/06 02:11:29;;;;;;;28.83;3.63;;;;;;;3.31;100.00;104251.28;4986207;28;20046;-64
2023/02/06 02:13:56;;;;;;;26.48;3.20;;;;;;;3.33;100.00;104246.94;4984091;28;20124;-63
2023/02/06 02:16:39;;;;;;;26.13;5.10;;;;;;;3.36;100.00;104239.09;4984639;28;20053;-63
2023/02/06 02:19:36;;;;;;;28.95;8.00;;;;;;;3.45;100.00;104237.28;4976928;28;20061;-65
2023/02/06 02:22:50;;;;;;;17.85;3.42;;;;;;;3.47;100.00;104235.53;4980333;28;20054;-63
2023/02/06 02:25:38;;;;;;;21.67;3.05;;;;;;;3.51;100.00;104240.69;4964878;28;20054;-63
2023/02/06 02:28:29;;;;;;;18.42;2.72;;;;;;;3.55;100.00;104241.53;4984068;28;20676;-62
2023/02/06 02:31:24;;;;;;;20.13;3.35;;;;;;;3.58;100.00;104248.41;4978864;28;20050;-63
2023/02/06 02:34:07;;;;;;;17.50;2.42;;;;;;;3.54;100.00;104245.84;4989643;28;20120;-63
2023/02/06 02:36:56;;;;;;;24.08;3.42;;;;;;;3.58;100.00;104243.22;4957982;28;20054;-64
2023/02/06 02:39:45;;;;;;;17.73;2.75;;;;;;;3.58;100.00;104238.88;4981043;28;20054;-64
2023/02/06 02:42:15;;;;;;;22.15;3.92;;;;;;;3.50;100.00;104228.59;4977339;28;20054;-63
2023/02/06 02:44:52;;;;;;;21.42;3.67;;;;;;;3.59;100.00;104227.63;4984865;28;20060;-64
2023/02/06 02:47:22;;;;;;;20.27;2.85;;;;;;;3.61;100.00;104225.88;4974638;28;20570;-64
2023/02/06 02:49:49;;;;;;;16.05;2.67;;;;;;;3.63;100.00;104233.66;4981051;28;20050;-64
2023/02/06 02:52:15;;;;;;;18.75;2.97;;;;;;;3.64;100.00;104233.63;4962627;28;20543;-63
2023/02/06 02:54:42;;;;;;;19.45;2.85;;;;;;;3.62;100.00;104232.78;4972437;28;20055;-65
2023/02/06 02:57:13;;;;;;;22.30;3.60;;;;;;;3.66;100.00;104228.41;4987399;28;20552;-63
2023/02/06 02:59:44;;;;;;;28.85;4.07;;;;;;;3.64;100.00;104214.59;4977985;28;20065;-64
2023/02/06 03:02:26;;;;;;;21.08;3.78;;;;;;;3.66;100.00;104210.25;4985486;28;20083;-64
2023/02/06 03:04:58;;;;;;;15.27;2.42;;;;;;;3.68;100.00;104206.75;4979681;28;20594;-64
2023/02/06 03:07:42;;;;;;;14.98;2.70;;;;;;;3.68;100.00;104206.75;4985885;28;20447;-63
2023/02/06 03:10:18;;;;;;;18.67;2.60;;;;;;;3.77;100.00;104216.16;4979702;28;20054;-64
2023/02/06 03:12:57;;;;;;;15.82;2.75;;;;;;;3.79;100.00;104223.94;4984975;28;20055;-64
2023/02/06 03:15:34;;;;;;;18.20;2.38;;;;;;;3.77;100.00;104221.38;4979441;28;20582;-64
2023/02/06 03:18:15;;;;;;;21.10;2.47;;;;;;;3.72;100.00;104211.03;4973325;28;20121;-65
2023/02/06 03:20:45;;;;;;;36.10;10.15;;;;;;;3.68;100.00;104217.13;4961874;28;20323;-63
2023/02/06 03:23:15;;;;;;;24.13;9.20;;;;;;;3.70;100.00;104206.72;4980149;28;20055;-66
2023/02/06 03:25:45;;;;;;;29.02;8.07;;;;;;;3.70;100.00;104210.16;4982448;28;20053;-63
2023/02/06 03:28:26;;;;;;;19.27;3.83;;;;;;;3.72;100.00;104204.97;4982010;28;20065;-64
2023/02/06 03:30:55;;;;;;;15.15;2.55;;;;;;;3.73;100.00;104206.69;4972904;28;20043;-64
2023/02/06 03:33:27;;;;;;;17.65;2.92;;;;;;;3.70;100.00;104202.38;4972890;28;20142;-64
2023/02/06 03:35:56;;;;;;;24.55;3.03;;;;;;;3.68;100.00;104204.13;4983851;28;20046;-65
2023/02/06 03:38:23;;;;;;;20.77;2.65;;;;;;;3.68;100.00;104213.69;4985645;28;20045;-64
2023/02/06 03:40:52;;;;;;;18.48;2.88;;;;;;;3.70;100.00;104214.50;4987130;28;20057;-63
2023/02/06 03:43:22;;;;;;;14.90;2.78;;;;;;;3.68;100.00;104221.47;4977705;28;20054;-63
2023/02/06 03:45:54;;;;;;;19.70;3.28;;;;;;;3.70;100.00;104209.31;4974655;28;20054;-64
2023/02/06 03:48:28;;;;;;;13.93;2.45;;;;;;;3.67;100.00;104206.78;4979563;28;20592;-65
2023/02/06 03:50:58;;;;;;;24.02;2.78;;;;;;;3.64;100.00;104207.66;4979859;28;20121;-64
2023/02/06 03:53:25;;;;;;;16.10;2.70;;;;;;;3.58;100.00;104192.16;4988877;28;20046;-64
2023/02/06 03:55:58;;;;;;;15.13;2.70;;;;;;;3.51;100.00;104193.97;4970065;28;20053;-64
2023/02/06 03:58:25;;;;;;;13.82;2.00;;;;;;;3.44;100.00;104205.28;4981172;28;20050;-63
2023/02/06 04:00:52;;;;;;;17.88;2.53;;;;;;;3.36;100.00;104209.72;4957241;28;20090;-65
2023/02/06 04:03:20;;;;;;;19.25;2.70;;;;;;;3.32;100.00;104214.06;4974549;28;20046;-64
2023/02/06 04:05:46;;;;;;;11.77;3.03;;;;;;;3.28;100.00;104216.72;4985486;28;20050;-63
2023/02/06 04:08:13;;;;;;;22.50;3.30;;;;;;;3.30;100.00;104217.56;4979549;28;20050;-63
2023/02/06 04:10:39;;;;;;;15.93;2.20;;;;;;;3.26;100.00;104221.91;4983929;28;20047;-64
2023/02/06 04:13:05;;;;;;;18.98;3.35;;;;;;;3.26;100.00;104227.09;4972944;28;20104;-65
2023/02/06 04:15:32;;;;;;;17.92;2.47;;;;;;;3.22;100.00;104225.41;4977557;28;20605;-64
2023/02/06 04:17:58;;;;;;;13.48;2.65;;;;;;;3.14;100.00;104222.06;4970024;28;20058;-64
2023/02/06 04:20:28;;;;;;;15.07;2.15;;;;;;;3.09;100.00;104214.28;4984021;28;20054;-64
2023/02/06 04:22:55;;;;;;;14.27;2.67;;;;;;;3.04;100.00;104215.19;4981517;28;20058;-63
2023/02/06 04:25:22;;;;;;;16.58;2.03;;;;;;;3.00;100.00;104210.91;4980210;28;20053;-65
2023/02/06 04:27:48;;;;;;;18.63;2.80;;;;;;;2.98;100.00;104205.78;4986838;28;20050;-64
2023/02/06 04:30:16;;;;;;;18.33;2.55;;;;;;;2.99;100.00;104212.66;4973749;28;20089;-63
2023/02/06 04:32:43;;;;;;;14.40;2.27;;;;;;;2.99;100.00;104204.03;4976812;28;20054;-63
2023/02/06 04:35:09;;;;;;;12.90;2.22;;;;;;;2.99;100.00;104199.69;4978281;28;20042;-64
2023/02/06 04:37:36;;;;;;;15.77;2.25;;;;;;;2.96;100.00;104199.75;4976794;28;20058;-64
2023/02/06 04:40:03;;;;;;;11.32;1.95;;;;;;;2.94;100.00;104202.34;4980306;28;20751;-63
2023/02/06 04:42:30;;;;;;;17.30;3.05;;;;;;;2.89;100.00;104208.44;4969824;28;20693;-63
2023/02/06 04:44:56;;;;;;;15.80;3.03;;;;;;;2.85;100.00;104204.16;4983703;28;20050;-64
2023/02/06 04:47:22;;;;;;;17.30;2.47;;;;;;;2.81;100.00;104203.31;4980462;28;20147;-63
2023/02/06 04:49:49;;;;;;;13.80;2.53;;;;;;;2.78;100.00;104205.91;4985785;28;20054;-64
2023/02/06 04:52:15;;;;;;;15.90;3.15;;;;;;;2.79;100.00;104206.81;4961030;28;20058;-65
2023/02/06 04:54:42;;;;;;;12.65;2.53;;;;;;;2.77;100.00;104204.22;4974512;28;20054;-65
2023/02/06 04:57:08;;;;;;;14.48;2.33;;;;;;;2.79;100.00;104209.41;4970253;28;20052;-63
2023/02/06 04:59:34;;;;;;;17.38;2.78;;;;;;;2.77;100.00;104209.41;4973806;28;20055;-64
2023/02/06 05:02:01;;;;;;;18.35;3.00;;;;;;;2.81;100.00;104212.84;4987381;28;20336;-64
2023/02/06 05:04:27;;;;;;;19.10;2.60;;;;;;;2.80;100.00;104216.28;4975010;28;21696;-64
2023/02/06 05:06:54;;;;;;;12.07;2.17;;;;;;;2.79;100.00;104214.56;4986550;28;20050;-65
2023/02/06 05:09:20;;;;;;;13.30;2.33;;;;;;;2.79;100.00;104220.63;4976870;28;20049;-64
2023/02/06 05:11:46;;;;;;;14.10;2.45;;;;;;;2.79;100.00;104223.22;4979183;28;20054;-64
2023/02/06 05:14:13;;;;;;;16.63;2.40;;;;;;;2.81;100.00;104218.88;4983803;28;20379;-64
2023/02/06 05:16:39;;;;;;;13.13;2.25;;;;;;;2.80;100.00;104211.94;4980838;28;20058;-65
2023/02/06 05:19:06;;;;;;;18.50;2.90;;;;;;;2.81;100.00;104215.44;4981314;28;20292;-64
2023/02/06 05:21:32;;;;;;;14.40;2.38;;;;;;;2.81;100.00;104218.88;4980444;28;20042;-64
2023/02/06 05:23:58;;;;;;;13.60;2.10;;;;;;;2.84;100.00;104220.56;4983049;28;20054;-65
2023/02/06 05:26:25;;;;;;;16.92;2.40;;;;;;;2.83;100.00;104229.25;4968784;28;20526;-64
2023/02/06 05:28:52;;;;;;;13.32;2.00;;;;;;;2.75;100.00;104231.88;4984704;28;20053;-64
2023/02/06 05:31:18;;;;;;;12.07;2.15;;;;;;;2.73;100.00;104236.22;4980605;28;20511;-64
2023/02/06 05:33:47;;;;;;;14.57;2.53;;;;;;;2.69;100.00;104234.53;4982408;28;20084;-64
2023/02/06 05:36:19;;;;;;;10.05;2.05;;;;;;;2.64;100.00;104237.13;4985750;28;20054;-64
2023/02/06 05:38:46;;;;;;;13.25;2.10;;;;;;;2.57;100.00;104248.44;4967143;28;20100;-63
2023/02/06 05:41:12;;;;;;;14.15;2.40;;;;;;;2.54;100.00;104251.88;4981399;28;20618;-65
2023/02/06 05:43:39;;;;;;;7.85;1.95;;;;;;;2.54;100.00;104251.03;4974737;28;20054;-65
2023/02/06 05:46:05;;;;;;;9.57;1.95;;;;;;;2.50;100.00;104242.41;4979430;28;20046;-64
2023/02/06 05:48:33;;;;;;;11.45;1.77;;;;;;;2.49;100.00;104247.59;4981435;28;20148;-65
2023/02/06 05:51:00;;;;;;;13.13;1.83;;;;;;;2.49;100.00;104240.72;4970892;28;20050;-63
2023/02/06 05:53:27;;;;;;;16.02;2.72;;;;;;;2.49;100.00;104237.22;4978492;28;20055;-65
2023/02/06 05:55:53;;;;;;;10.85;2.10;;;;;;;2.47;100.00;104223.44;4973631;28;20112;-64
2023/02/06 05:58:20;;;;;;;15.13;2.78;;;;;;;2.48;100.00;104222.56;4982993;28;20061;-64
2023/02/06 06:00:46;;;;;;;16.10;2.97;;;;;;;2.48;100.00;104232.94;4972092;28;20046;-65
2023/02/06 06:03:13;;;;;;;14.50;2.30;;;;;;;2.49;100.00;104230.34;4985013;28;20101;-64
2023/02/06 06:05:39;;;;;;;13.68;1.92;;;;;;;2.51;100.00;104220.81;4982095;28;20053;-64
2023/02/06 06:08:06;;;;;;;20.33;3.20;;;;;;;2.49;100.00;104222.56;4980807;28;20053;-64
2023/02/06 06:10:32;;;;;;;10.70;2.20;;;;;;;2.45;100.00;104220.88;4986211;28;20567;-63
2023/02/06 06:12:59;;;;;;;15.40;2.47;;;;;;;2.44;100.00;104219.13;4976775;28;20058;-64
2023/02/06 06:15:25;;;;;;;15.38;2.35;;;;;;;2.51;100.00;104227.72;4974964;28;20058;-65
2023/02/06 06:17:52;;;;;;;11.98;2.05;;;;;;;2.47;100.00;104231.19;4975820;28;20050;-66
2023/02/06 06:20:18;;;;;;;14.48;3.33;;;;;;;2.50;100.00;104238.97;4967962;28;20058;-65
2023/02/06 06:22:44;;;;;;;18.38;2.67;;;;;;;2.46;100.00;104245.91;4984425;28;20414;-64
2023/02/06 06:25:11;;;;;;;12.38;2.25;;;;;;;2.47;100.00;104239.84;4981880;28;20078;-63
2023/02/06 06:27:38;;;;;;;12.85;2.38;;;;;;;2.48;100.00;104243.31;4979017;28;20062;-65
2023/02/06 06:30:05;;;;;;;16.88;3.60;;;;;;;2.50;100.00;104246.75;4975055;28;20054;-64
2023/02/06 06:32:31;;;;;;;11.18;2.40;;;;;;;2.51;100.00;104240.69;4978486;28;20832;-65
2023/02/06 06:34:57;;;;;;;11.93;2.50;;;;;;;2.51;100.00;104245.84;4982489;28;20058;-65
2023/02/06 06:37:24;;;;;;;20.77;3.33;;;;;;;2.50;100.00;104254.53;4979858;28;20399;-64
2023/02/06 06:39:50;;;;;;;16.48;3.03;;;;;;;2.50;100.00;104246.75;4984572;28;20051;-64
2023/02/06 06:42:16;;;;;;;11.35;2.55;;;;;;;2.49;100.00;104230.34;4976907;28;20108;-63
2023/02/06 06:44:43;;;;;;;16.27;3.22;;;;;;;2.50;100.00;104236.38;4981156;28;20078;-65
2023/02/06 06:47:09;;;;;;;14.73;3.13;;;;;;;2.51;100.00;104240.69;4963689;28;20694;-64
2023/02/06 06:49:36;;;;;;;19.73;3.03;;;;;;;2.52;100.00;104234.63;4966302;28;21188;-64
2023/02/06 06:52:02;;;;;;;17.85;2.35;;;;;;;2.52;100.00;104232.91;4985324;28;20050;-64
2023/02/06 06:54:34;;;;;;;13.57;3.03;;;;;;;2.54;100.00;104231.16;4980331;28;20486;-64
2023/02/06 06:57:00;;;;;;;16.40;2.92;;;;;;;2.57;100.00;104228.56;4990081;28;20049;-64
2023/02/06 06:59:27;;;;;;;13.82;2.90;;;;;;;2.62;100.00;104220.72;4974213;28;20152;-64
2023/02/06 07:01:53;;;;;;;12.88;3.35;;;;;;;2.64;100.00;104216.41;4983597;28;20108;-65
2023/02/06 07:04:20;;;;;;;15.43;2.63;;;;;;;2.66;100.00;104216.41;4974131;28;20076;-64
2023/02/06 07:06:46;;;;;;;17.40;3.80;;;;;;;2.70;100.00;104208.56;4988589;28;20058;-63
2023/02/06 07:09:13;;;;;;;14.05;2.78;;;;;;;2.73;100.00;104212.91;4983586;28;20407;-64
2023/02/06 07:11:39;;;;;;;14.90;3.53;;;;;;;2.74;100.00;104215.47;4985310;28;20049;-64
2023/02/06 07:14:07;;;;;;;16.58;3.58;;;;;;;2.76;100.00;104218.91;4986727;28;20053;-64
2023/02/06 07:16:33;;;;;;;16.88;3.33;;;;;;;2.79;100.00;104214.56;4973805;28;21268;-64
2023/02/06 07:19:00;;;;;;;16.52;3.13;;;;;;;2.81;100.00;104199.88;4988597;28;20058;-64
2023/02/06 07:21:26;;;;;;;17.52;3.90;;;;;;;2.82;100.00;104197.25;4987276;28;20082;-65
2023/02/06 07:23:53;;;;;;;16.20;2.97;;;;;;;2.84;100.00;104192.91;4981588;28;20056;-64
2023/02/06 07:26:19;;;;;;;13.52;3.25;;;;;;;2.90;100.00;104189.41;4988177;28;20061;-63
2023/02/06 07:28:48;;;;;;;20.02;2.42;;;;;;;2.95;100.00;104193.66;4970695;28;20069;-66
2023/02/06 07:31:15;;;;;;;9.30;3.10;;;;;;;3.02;100.00;104197.09;4966915;28;20043;-64
2023/02/06 07:33:41;;;;;;;15.93;3.67;;;;;;;3.10;100.00;104197.88;4968382;28;20054;-65
2023/02/06 07:36:13;;;;;;;17.67;3.97;;;;;;;3.21;100.00;104191.69;4983418;28;20196;-64
2023/02/06 07:38:40;;;;;;;16.92;3.33;;;;;;;3.22;100.00;104186.50;4950921;28;20046;-64
2023/02/06 07:41:07;;;;;;;10.65;2.17;;;;;;;3.24;100.00;104179.56;4977326;28;20053;-64
2023/02/06 07:43:33;;;;;;;11.45;2.20;;;;;;;3.32;100.00;104176.88;4975154;28;20076;-65
2023/02/06 07:46:02;;;;;;;14.75;2.92;;;;;;;3.38;100.00;104183.75;4970296;28;20068;-64
2023/02/06 07:48:29;;;;;;;15.10;3.17;;;;;;;3.40;100.00;104180.25;4983681;28;20060;-64
2023/02/06 07:51:03;;;;;;;17.02;2.47;;;;;;;3.45;100.00;104175.00;4972174;28;20047;-64
2023/02/06 07:53:29;;;;;;;9.80;2.55;;;;;;;3.46;100.00;104175.00;4972964;28;20054;-64
2023/02/06 07:55:55;;;;;;;15.00;2.75;;;;;;;3.50;100.00;104163.69;4961831;28;20058;-65
2023/02/06 07:58:22;;;;;;;13.68;2.67;;;;;;;3.55;100.00;104154.13;4975153;28;20054;-63
2023/02/06 08:00:48;;;;;;;10.82;2.67;;;;;;;3.56;100.00;104142.84;4979835;28;20047;-63
2023/02/06 08:03:15;;;;;;;14.55;2.60;;;;;;;3.62;100.00;104151.44;4975650;28;20510;-63
2023/02/06 08:05:41;;;;;;;13.18;2.65;;;;;;;3.69;100.00;104146.16;4981651;28;20088;-65
2023/02/06 08:08:09;;;;;;;8.68;2.30;;;;;;;3.73;100.00;104144.38;4969239;28;20050;-64
2023/02/06 08:10:38;;;;;;;16.97;2.20;;;;;;;3.78;100.00;104146.91;4977028;28;20715;-65
2023/02/06 08:13:06;;;;;;;18.65;2.92;;;;;;;3.78;100.00;104134.78;4965709;28;20400;-64
2023/02/06 08:15:32;;;;;;;14.82;2.60;;;;;;;3.82;100.00;104130.41;4971078;28;20735;-64
2023/02/06 08:17:59;;;;;;;21.40;2.33;;;;;;;3.85;100.00;104123.44;4971597;28;20054;-64
2023/02/06 08:20:26;;;;;;;10.93;2.40;;;;;;;3.89;100.00;104126.84;4975391;28;20077;-64
2023/02/06 08:22:53;;;;;;;15.73;4.05;;;;;;;3.92;100.00;104125.06;4974493;28;20479;-64
2023/02/06 08:25:19;;;;;;;14.20;3.03;;;;;;;3.98;100.00;104116.34;4971661;28;20212;-66
2023/02/06 08:27:55;;;;;;;17.02;2.67;;;;;;;4.07;100.00;104113.59;4983474;28;20057;-66
2023/02/06 08:30:22;;;;;;;7.72;2.20;;;;;;;4.10;100.00;104108.34;4970411;28;20051;-65
2023/02/06 08:32:49;;;;;;;14.30;2.75;;;;;;;4.16;100.00;104112.59;4980829;28;20051;-65
2023/02/06 08:35:15;;;;;;;11.70;2.60;;;;;;;4.16;100.00;104108.25;4981973;28;20046;-64
2023/02/06 08:37:42;;;;;;;7.47;2.70;;;;;;;4.23;100.00;104119.41;4961222;28;20138;-66
2023/02/06 08:40:10;;;;;;;11.98;2.20;;;;;;;4.27;100.00;104112.41;4973390;28;20562;-65
2023/02/06 08:42:37;;;;;;;11.07;2.30;;;;;;;4.31;100.00;104106.28;4979714;28;20057;-65
2023/02/06 08:45:04;;;;;;;11.02;2.67;;;;;;;4.36;100.00;104099.28;4984632;28;20076;-64
2023/02/06 08:47:31;;;;;;;16.25;2.85;;;;;;;4.44;100.00;104101.75;4971534;28;20064;-64
2023/02/06 08:49:57;;;;;;;13.30;2.83;;;;;;;4.50;100.00;104109.44;4986941;28;20076;-65
2023/02/06 08:52:25;;;;;;;11.52;2.95;;;;;;;4.56;100.00;104109.34;4976077;28;20076;-68
2023/02/06 08:54:52;;;;;;;12.38;2.50;;;;;;;4.61;100.00;104119.69;4974015;28;20495;-64
2023/02/06 08:57:19;;;;;;;15.30;2.47;;;;;;;4.65;100.00;104122.19;4989067;28;20054;-64
2023/02/06 08:59:46;;;;;;;12.73;2.92;;;;;;;4.71;100.00;104123.81;4962206;28;20134;-66
2023/02/06 09:02:12;;;;;;;13.23;2.85;;;;;;;4.78;100.00;104135.81;4973805;28;20049;-66
2023/02/06 09:04:41;;;;;;;17.60;2.42;;;;;;;4.84;100.00;104142.66;4976008;28;20057;-67
2023/02/06 09:07:08;;;;;;;14.82;2.53;;;;;;;4.90;100.00;104135.63;4983321;28;20046;-64
2023/02/06 09:09:34;;;;;;;12.07;2.28;;;;;;;4.96;100.00;104137.25;4977649;28;20066;-66
2023/02/06 09:12:02;;;;;;;12.05;2.83;;;;;;;5.03;100.00;104136.22;4971494;28;20695;-66
2023/02/06 09:14:30;;;;;;;14.82;2.70;;;;;;;5.11;100.00;104139.53;4977503;28;20159;-66
2023/02/06 09:16:57;;;;;;;15.27;3.08;;;;;;;5.15;100.00;104143.81;4958120;28;20047;-65
2023/02/06 09:19:24;;;;;;;14.75;2.88;;;;;;;5.22;100.00;104148.91;4972238;28;20046;-65
2023/02/06 09:21:51;;;;;;;15.50;2.80;;;;;;;5.32;100.00;104147.81;4977589;28;20060;-65
2023/02/06 09:24:18;;;;;;;9.68;2.00;;;;;;;5.38;100.00;104149.47;4986345;28;20054;-65
2023/02/06 09:26:44;;;;;;;13.80;2.75;;;;;;;5.40;100.00;104156.34;4985919;28;20054;-66
2023/02/06 09:29:27;;;;;;;19.88;3.17;;;;;;;5.51;100.00;104153.53;4967679;28;20152;-65
2023/02/06 09:31:56;;;;;;;17.42;2.88;;;;;;;5.55;100.00;104155.19;4971697;28;20515;-66
2023/02/06 09:34:25;;;;;;;13.57;2.47;;;;;;;5.62;100.00;104155.91;4975839;28;20537;-65
2023/02/06 09:36:56;;;;;;;13.93;2.55;;;;;;;5.70;100.00;104160.06;4976270;28;20064;-67
2023/02/06 09:39:24;;;;;;;25.58;3.20;;;;;;;5.78;100.00;104159.88;4980636;28;20090;-66
2023/02/06 09:41:54;;;;;;;14.30;2.83;;;;;;;5.87;100.00;104149.25;4973352;28;20149;-65
2023/02/06 09:44:42;;;;;;;16.50;2.63;;;;;;;5.96;100.00;104137.81;4968307;28;20050;-65
2023/02/06 09:47:28;;;;;;;13.30;2.58;;;;;;;6.07;100.00;104146.22;4985931;28;20527;-66
2023/02/06 09:50:06;;;;;;;17.88;2.85;;;;;;;6.09;100.00;104152.25;4966450;28;21102;-65
2023/02/06 09:52:36;;;;;;;18.90;2.93;;;;;;;6.17;100.00;104153.84;4970991;28;20057;-65
2023/02/06 09:55:13;;;;;;;17.55;2.85;;;;;;;6.23;100.00;104159.75;4991511;28;20050;-64
2023/02/06 09:57:51;;;;;;;19.20;2.70;;;;;;;6.29;100.00;104156.16;4966495;28;20292;-64
2023/02/06 10:00:33;;;;;;;16.42;2.97;;;;;;;6.32;100.00;104146.50;4978189;28;20072;-65
2023/02/06 10:03:38;;;;;;;17.67;2.65;;;;;;;6.44;100.00;104150.56;4978767;28;20054;-66
2023/02/06 10:06:32;;;;;;;17.95;2.90;;;;;;;6.50;100.00;104157.41;4974326;28;20472;-66
2023/02/06 10:09:04;;;;;;;20.70;3.00;;;;;;;6.56;100.00;104154.63;4974159;28;20286;-64
2023/02/06 10:11:55;;;;;;;13.63;2.70;;;;;;;6.68;100.00;104161.28;4974674;28;20046;-64
2023/02/06 10:14:42;;;;;;;19.77;3.15;;;;;;;6.77;100.00;104161.06;4969932;28;20106;-65
2023/02/06 10:17:22;;;;;;;15.88;2.25;;;;;;;6.86;100.00;104160.81;4979630;28;20642;-66
2023/02/06 10:20:16;;;;;;;17.80;2.72;;;;;;;6.91;100.00;104156.31;4970943;28;20539;-62
2023/02/06 10:23:02;;;;;;;14.30;2.70;;;;;;;7.00;100.00;104146.53;4986209;28;20442;-64
2023/02/06 10:25:36;;;;;;;20.10;2.97;;;;;;;7.02;100.00;104136.94;4962929;28;20439;-64
2023/02/06 10:28:30;;;;;;;18.73;3.15;;;;;;;7.13;100.00;104134.88;4978048;28;20080;-65
2023/02/06 10:31:06;;;;;;;15.63;2.85;;;;;;;7.16;100.00;104134.78;4972779;28;20054;-66
2023/02/06 10:33:53;;;;;;;15.90;2.83;;;;;;;7.25;100.00;104139.75;4987093;28;20451;-66
2023/02/06 10:36:53;;;;;;;20.40;2.88;;;;;;;7.39;100.00;104141.09;4982825;28;20057;-66
2023/02/06 10:39:38;;;;;;;15.50;3.17;;;;;;;7.45;100.00;104140.94;4973567;28;20100;-66
2023/02/06 10:42:36;;;;;;;16.52;3.85;;;;;;;7.57;100.00;104137.13;4980484;28;20054;-66
2023/02/06 10:45:39;;;;;;;20.58;2.38;;;;;;;7.66;100.00;104131.59;4977418;28;20146;-67
2023/02/06 10:48:18;;;;;;;21.38;2.53;;;;;;;7.70;100.00;104134.09;4980966;28;20046;-66
2023/02/06 10:50:55;;;;;;;14.40;2.40;;;;;;;7.69;100.00;104139.34;4974803;28;20059;-65
2023/02/06 10:53:27;;;;;;;19.75;2.63;;;;;;;7.75;100.00;104141.78;4966175;28;20262;-67
2023/02/06 10:55:58;;;;;;;11.55;1.95;;;;;;;7.78;100.00;104138.22;4983411;28;20062;-66
2023/02/06 10:58:34;;;;;;;15.60;3.25;;;;;;;7.86;100.00;104144.06;4984879;28;20121;-66
2023/02/06 11:01:03;;;;;;;21.98;2.22;;;;;;;7.93;100.00;104146.44;4974911;28;20054;-66
2023/02/06 11:04:11;;;;;;;14.90;2.00;;;;;;;8.09;100.00;104138.97;4979244;28;20133;-66
2023/02/06 11:06:41;;;;;;;16.45;2.72;;;;;;;8.16;100.00;104134.41;4933337;28;20054;-66
2023/02/06 11:09:09;;;;;;;11.43;2.33;;;;;;;8.20;100.00;104136.00;4975160;28;20057;-65
2023/02/06 11:11:38;;;;;;;19.10;2.58;;;;;;;8.23;100.00;104135.06;4977637;28;20538;-66
2023/02/06 11:14:47;;;;;;;14.18;2.38;;;;;;;8.31;100.00;104138.25;4981099;28;20065;-67
2023/02/06 11:17:17;;;;;;;22.05;3.30;;;;;;;8.28;100.00;104139.22;4974242;28;20082;-66
2023/02/06 11:19:44;;;;;;;18.30;2.78;;;;;;;8.32;100.00;104140.00;4975538;28;20051;-65
2023/02/06 11:22:14;;;;;;;10.25;2.22;;;;;;;8.36;100.00;104133.75;4967228;28;20607;-66
2023/02/06 11:25:02;;;;;;;13.43;2.25;;;;;;;8.41;100.00;104130.97;4983763;28;20058;-64
2023/02/06 11:27:32;;;;;;;18.27;2.17;;;;;;;8.43;100.00;104137.91;4981127;28;20487;-67
2023/02/06 11:30:06;;;;;;;15.77;2.63;;;;;;;8.37;100.00;104134.59;4977285;28;20054;-65
2023/02/06 11:32:40;;;;;;;19.25;2.95;;;;;;;8.39;100.00;104133.66;4981431;28;20038;-65